Etusivu
METAR-TAF:

METAR-TAF

Lentoasemat :

Trondheim, Norja

Trondheimin lentoasema

Leveyspiiri: 63-28N, Pituuspiiri: 010-56E, korkeus merenpinnasta: 1 m

Tämänhetkinen sää

Tämä raportti tehtiin 43 minuuttia sitten, kello 11.50 UTC
Tuuli 6 kn idästä
Lämpötila 8°C
Kosteus 76%
Ilmanpaine 1019 hPa
Näkyvyys 10 km tai enemmän
ei pilviä alle 1500 m:ssä eikä cumulonimbus-pilviä

METAR: ENVA 191150Z 10006KT CAVOK 08/04 Q1019 NOSIG RMK WIND 670FT 09005KT

Aika: 14:33 (12:33 UTC)

Sääennuste

Ennuste voimassa 19. päivästä klo 12 UTC - 20. päivään klo 12 UTC
Tuuli 7 kn idästä/kaakosta
Näkyvyys 10 km tai enemmän
ei pilviä alle 1500 m:ssä eikä cumulonimbus-pilviä
Ajoittain
20. päivästä klo 00 UTC - 20. päivään klo 12 UTC
Tuuli 15 kn etelästä/kaakosta puuskistuen 28 kn:hen

TAF: ENVA 1912/2012 11007KT CAVOK TEMPO 2000/2012 16015G28KT

Säähavainnot ja -ennusteet yli 4000 lentoasemalta (METAR- ja TAF-raportit).

Käytössä olevat sääasemat on merkitty karttaan keltaisilla ja punaisilla pisteillä.

Aseta hiiri pisteen päälle nähdäksesi sääaseman nimen.

Klikkaa sitten nähdäksesi säähavainnot ja -ennusteet.

Kartan vaihtaminen: klikkaa mustalla rastilla varustettuja vihreitä pisteitä, niin voit zoomata sisään; viivalla varustettua vihreää pistettä, niin voit zoomata ulos tai vihreitä nuolia, niin pääset viereisille kartoille.


METAR-TAF: